Time;durP1;ratioP1;P1;durP2;ratioP2;P2;SDS_P1;SDS_P2;PMS_P1;PMS_P2;Temp;Humidity;BMP_temperature;BMP_pressure;BME280_temperature;BME280_humidity;BME280_pressure;Samples;Min_cycle;Max_cycle;Signal;HPM_P1;HPM_P2
2022/06/05 00:01:13;;;;;;;;;12.33;12.33;;;;;;;;5076099;27;46384;-67
2022/06/05 00:03:48;;;;;;;;;13.00;12.67;;;;;21.04;66.06;100631.97;5075848;28;45486;-66
2022/06/05 00:06:33;;;;;;;;;10.67;10.67;;;;;21.03;65.96;100644.47;5076061;28;45454;-67
2022/06/05 00:09:07;;;;;;;;;11.75;10.25;;;;;21.02;65.45;100648.13;5076192;28;45634;-67
2022/06/05 00:12:01;;;;;;;;;11.00;9.67;;;;;21.00;65.43;100639.38;5094042;27;45442;-67
2022/06/05 00:14:27;;;;;;;;;10.75;10.50;;;;;21.00;65.25;100628.66;5095987;27;45507;-67
2022/06/05 00:16:52;;;;;;;;;12.00;10.33;;;;;21.00;65.69;100638.50;5096556;27;45467;-67
2022/06/05 00:19:17;;;;;;;;;13.33;13.33;;;;;20.99;65.33;100639.50;5078068;27;45424;-67
2022/06/05 00:21:43;;;;;;;;;14.33;13.00;;;;;20.99;65.21;100636.81;5095815;27;46691;-67
2022/06/05 00:24:08;;;;;;;;;11.00;11.00;;;;;21.00;65.31;100644.72;5095853;27;45528;-67
2022/06/05 00:26:41;;;;;;;;;13.33;13.33;;;;;21.03;65.29;100654.31;5095326;27;45768;-67
2022/06/05 00:29:21;;;;;;;;;12.67;12.33;;;;;21.04;65.17;100650.69;5096124;27;45412;-67
2022/06/05 00:31:57;;;;;;;;;13.33;13.33;;;;;21.02;65.01;100641.94;5096010;27;46362;-67
2022/06/05 00:34:23;;;;;;;;;15.67;14.67;;;;;21.03;64.94;100631.09;5096012;27;45432;-68
2022/06/05 00:36:57;;;;;;;;;12.00;12.00;;;;;21.03;65.15;100635.59;5083224;27;45470;-67
2022/06/05 00:39:40;;;;;;;;;12.00;12.00;;;;;21.02;65.02;100636.59;5075812;27;45368;-67
2022/06/05 00:42:17;;;;;;;;;13.67;12.67;;;;;20.93;65.16;100627.47;5080152;27;45666;-66
2022/06/05 00:44:43;;;;;;;;;12.67;10.67;;;;;20.93;65.70;100619.44;5056932;28;46145;-66
2022/06/05 00:47:12;;;;;;;;;12.33;11.33;;;;;20.89;65.91;100618.81;5075516;28;45523;-67
2022/06/05 00:49:58;;;;;;;;;14.00;13.33;;;;;20.92;65.97;100604.34;5075515;28;45609;-67
2022/06/05 00:52:26;;;;;;;;;15.00;13.00;;;;;20.90;65.98;100607.16;5074727;28;45476;-67
2022/06/05 00:54:52;;;;;;;;;15.33;15.33;;;;;20.90;66.41;100607.16;5079160;27;45545;-67
2022/06/05 00:57:20;;;;;;;;;15.33;15.33;;;;;20.87;66.06;100609.22;5095544;27;45408;-67
2022/06/05 00:59:48;;;;;;;;;14.67;14.00;;;;;20.85;66.25;100609.34;5095591;27;45421;-67
2022/06/05 01:02:14;;;;;;;;;17.33;16.67;;;;;20.82;67.05;100593.56;5095308;27;45722;-67
2022/06/05 01:04:43;;;;;;;;;15.67;15.67;;;;;20.79;67.06;100606.28;5095346;27;45493;-67
2022/06/05 01:07:10;;;;;;;;;14.00;14.00;;;;;20.73;67.13;100602.28;5095324;27;45550;-67
2022/06/05 01:09:38;;;;;;;;;14.33;14.33;;;;;20.74;67.66;100604.00;5090912;27;45480;-67
2022/06/05 01:12:26;;;;;;;;;14.00;13.33;;;;;20.76;67.18;100610.03;5074331;28;46500;-67
2022/06/05 01:14:58;;;;;;;;;15.33;14.33;;;;;20.78;67.30;100596.56;5077093;27;45393;-67
2022/06/05 01:17:39;;;;;;;;;15.33;14.33;;;;;20.80;67.34;100578.59;5095218;27;45512;-67
2022/06/05 01:20:42;;;;;;;;;14.00;14.00;;;;;20.80;67.42;100570.59;5095231;27;45448;-67
2022/06/05 01:23:41;;;;;;;;;17.67;16.33;;;;;20.81;67.27;100566.94;5095032;27;46844;-67
2022/06/05 01:26:32;;;;;;;;;17.00;17.00;;;;;20.80;67.17;100557.22;5094601;27;45549;-67
2022/06/05 01:29:22;;;;;;;;;19.00;18.67;;;;;20.84;67.29;100551.50;5092222;27;45540;-67
2022/06/05 01:31:56;;;;;;;;;17.67;16.00;;;;;20.85;67.33;100550.53;5094799;27;45498;-67
2022/06/05 01:34:48;;;;;;;;;17.33;16.33;;;;;20.86;67.11;100551.38;5094737;27;45572;-67
2022/06/05 01:37:35;;;;;;;;;17.67;17.00;;;;;20.83;67.35;100539.09;5067544;28;45612;-67
2022/06/05 01:40:08;;;;;;;;;13.33;13.33;;;;;20.80;67.49;100533.16;5074696;27;45550;-67
2022/06/05 01:43:07;;;;;;;;;16.00;15.33;;;;;20.82;67.20;100532.06;5074710;27;45457;-67
2022/06/05 01:45:44;;;;;;;;;17.67;16.33;;;;;20.81;67.17;100514.31;5058687;28;45463;-67
2022/06/05 01:48:16;;;;;;;;;13.33;13.33;;;;;20.82;67.07;100510.69;5074478;27;45396;-67
2022/06/05 01:50:48;;;;;;;;;16.00;15.33;;;;;20.85;67.12;100515.78;5074421;27;45525;-67
2022/06/05 01:53:24;;;;;;;;;18.33;16.33;;;;;20.86;66.81;100505.94;5074419;28;45496;-67
2022/06/05 01:55:55;;;;;;;;;11.67;11.67;;;;;20.87;66.78;100504.94;5074185;28;46286;-67
2022/06/05 01:58:31;;;;;;;;;16.00;16.00;;;;;20.84;66.52;100491.84;5074543;27;45600;-67
2022/06/05 02:01:01;;;;;;;;;11.33;11.33;;;;;20.84;67.11;100492.69;5056434;28;45539;-67
2022/06/05 02:03:39;;;;;;;;;14.67;13.67;;;;;20.79;67.11;100491.34;5074635;28;45432;-67
2022/06/05 02:06:10;;;;;;;;;17.00;16.67;;;;;20.68;67.52;100478.84;5088662;27;46905;-67
2022/06/05 02:08:50;;;;;;;;;18.33;17.33;;;;;20.71;68.09;100481.25;5084007;27;45539;-67
2022/06/05 02:11:22;;;;;;;;;17.33;15.67;;;;;20.68;67.76;100474.34;5074398;28;45449;-67
2022/06/05 02:13:49;;;;;;;;;16.67;14.67;;;;;20.65;67.91;100485.28;5074349;28;45437;-67
2022/06/05 02:16:16;;;;;;;;;14.67;14.67;;;;;20.62;67.95;100484.69;5078022;27;47064;-67
2022/06/05 02:18:41;;;;;;;;;16.67;15.33;;;;;20.58;68.06;100472.53;5094707;27;45463;-67
2022/06/05 02:21:07;;;;;;;;;16.67;16.67;;;;;20.59;68.46;100467.06;5076527;27;45453;-67
2022/06/05 02:23:36;;;;;;;;;17.67;17.67;;;;;20.64;68.02;100474.72;5094640;27;45980;-67
2022/06/05 02:26:03;;;;;;;;;18.33;16.67;;;;;20.61;68.31;100475.81;5078535;27;46172;-67
2022/06/05 02:28:29;;;;;;;;;13.33;13.33;;;;;20.64;67.69;100472.06;5055817;28;45455;-67
2022/06/05 02:31:13;;;;;;;;;13.33;13.00;;;;;20.63;67.32;100460.53;5074253;28;45405;-67
2022/06/05 02:34:12;;;;;;;;;10.33;10.33;;;;;20.66;67.01;100462.06;5078424;27;45586;-67
2022/06/05 02:36:52;;;;;;;;;11.33;11.33;;;;;20.61;67.06;100461.63;5073577;28;45507;-67
2022/06/05 02:39:36;;;;;;;;;12.33;11.33;;;;;20.60;66.87;100450.06;5074097;28;45421;-67
2022/06/05 02:42:14;;;;;;;;;11.00;11.00;;;;;20.60;66.72;100443.84;5073735;28;45495;-67
2022/06/05 02:45:17;;;;;;;;;13.00;12.33;;;;;20.60;66.66;100443.84;5085057;27;45369;-67
2022/06/05 02:47:52;;;;;;;;;10.67;10.67;;;;;20.54;66.72;100447.88;5075422;27;46158;-67
2022/06/05 02:50:26;;;;;;;;;10.00;10.00;;;;;20.55;66.49;100441.53;5096970;27;45498;-67
2022/06/05 02:52:58;;;;;;;;;10.67;10.67;;;;;20.50;66.60;100441.91;5097772;27;45498;-67
2022/06/05 02:55:24;;;;;;;;;14.33;13.33;;;;;20.50;66.56;100438.38;5097830;27;45528;-68
2022/06/05 02:57:49;;;;;;;;;9.00;9.00;;;;;20.55;66.18;100438.88;5097583;27;46533;-67
2022/06/05 03:00:24;;;;;;;;;10.75;10.00;;;;;20.56;66.33;100432.59;5078372;27;45454;-67
2022/06/05 03:05:35;;;;;;;;;11.67;11.67;;;;;20.57;66.03;100439.59;5077094;27;45552;-67
2022/06/05 03:08:02;;;;;;;;;10.33;10.33;;;;;20.61;65.63;100437.56;5076755;28;45459;-66
2022/06/05 03:10:28;;;;;;;;;10.75;9.50;;;;;20.61;65.53;100435.75;5092906;27;45640;-67
2022/06/05 03:12:53;;;;;;;;;6.50;6.50;;;;;20.60;65.90;100442.03;5097176;27;45431;-67
2022/06/05 03:15:19;;;;;;;;;11.33;11.33;;;;;20.59;65.98;100452.88;5077397;27;45392;-67
2022/06/05 03:17:44;;;;;;;;;12.67;10.00;;;;;20.55;66.31;100451.38;5076785;28;46050;-67
2022/06/05 03:20:13;;;;;;;;;11.33;11.33;;;;;20.48;66.37;100441.16;5077065;28;45541;-67
2022/06/05 03:22:39;;;;;;;;;15.33;15.00;;;;;20.39;66.43;100459.72;5077064;28;45470;-66
2022/06/05 03:25:05;;;;;;;;;12.33;12.00;;;;;20.35;66.54;100451.13;5077066;28;45451;-67
2022/06/05 03:27:31;;;;;;;;;14.00;13.00;;;;;20.26;66.80;100451.84;5076700;28;45473;-66
2022/06/05 03:29:57;;;;;;;;;14.33;14.33;;;;;20.29;66.86;100448.94;5058905;28;45476;-68
2022/06/05 03:32:23;;;;;;;;;14.00;14.00;;;;;20.23;67.19;100452.06;5076923;28;45554;-66
2022/06/05 03:34:49;;;;;;;;;14.00;14.00;;;;;20.16;67.12;100433.03;5057916;28;45551;-67
2022/06/05 03:37:14;;;;;;;;;13.33;13.33;;;;;20.20;67.32;100445.19;5076699;28;46466;-67
2022/06/05 03:39:40;;;;;;;;;15.00;15.00;;;;;20.12;67.09;100460.91;5075441;28;45447;-67
2022/06/05 03:42:06;;;;;;;;;17.00;14.33;;;;;20.08;67.38;100470.16;5075310;28;45354;-66
2022/06/05 03:44:36;;;;;;;;;11.67;11.67;;;;;20.13;66.89;100477.81;5076902;27;45543;-67
2022/06/05 03:47:01;;;;;;;;;16.67;15.33;;;;;20.11;66.76;100482.41;5076226;27;45587;-67
2022/06/05 03:49:27;;;;;;;;;15.00;14.33;;;;;20.16;66.75;100486.44;5076476;28;45466;-67
2022/06/05 03:51:52;;;;;;;;;10.33;10.33;;;;;20.14;67.00;100477.69;5076397;28;45514;-67
2022/06/05 03:54:17;;;;;;;;;14.33;14.00;;;;;20.14;66.12;100487.50;5076457;27;45412;-67
2022/06/05 03:56:43;;;;;;;;;14.67;14.00;;;;;20.18;66.82;100483.66;5076164;28;46286;-67
2022/06/05 03:59:08;;;;;;;;;14.33;14.33;;;;;20.19;66.48;100498.69;5076040;27;45570;-67
2022/06/05 04:01:33;;;;;;;;;13.33;12.33;;;;;20.19;67.07;100504.03;5075334;28;45456;-67
2022/06/05 04:03:59;;;;;;;;;13.67;12.33;;;;;20.14;66.78;100491.03;5078565;27;45457;-67
2022/06/05 04:06:28;;;;;;;;;13.00;12.67;;;;;20.16;66.51;100506.94;5096366;27;45498;-66
2022/06/05 04:08:55;;;;;;;;;12.33;10.67;;;;;20.20;66.40;100503.94;5096639;27;45452;-66
2022/06/05 04:11:21;;;;;;;;;10.67;10.67;;;;;20.18;66.47;100505.00;5078317;27;45520;-67
2022/06/05 04:13:47;;;;;;;;;13.00;12.00;;;;;20.10;67.07;100502.94;5074677;27;45592;-68
2022/06/05 04:16:26;;;;;;;;;12.33;12.33;;;;;20.13;66.60;100512.53;5076147;28;45428;-67
2022/06/05 04:18:52;;;;;;;;;13.67;13.67;;;;;20.16;66.55;100510.47;5057770;28;45409;-66
2022/06/05 04:21:22;;;;;;;;;12.33;12.33;;;;;20.17;66.51;100516.66;5076229;28;45500;-66
2022/06/05 04:23:48;;;;;;;;;11.67;11.67;;;;;20.17;66.37;100519.31;5078617;27;45421;-67
2022/06/05 04:26:17;;;;;;;;;8.00;8.00;;;;;20.21;66.53;100521.63;5095822;27;45572;-66
2022/06/05 04:28:42;;;;;;;;;15.00;13.33;;;;;20.28;66.41;100528.22;5096136;27;45391;-66
2022/06/05 04:31:22;;;;;;;;;7.33;7.33;;;;;20.33;66.19;100532.34;5096043;27;45443;-66
2022/06/05 04:33:50;;;;;;;;;11.67;9.33;;;;;20.34;66.25;100523.34;5095986;27;45608;-67
2022/06/05 04:36:16;;;;;;;;;11.33;11.33;;;;;20.38;66.44;100533.69;5095786;27;45516;-66
2022/06/05 04:38:41;;;;;;;;;12.00;12.00;;;;;20.44;65.85;100546.56;5095957;27;45509;-66
2022/06/05 04:41:08;;;;;;;;;11.67;11.67;;;;;20.47;66.11;100546.34;5089710;27;45634;-66
2022/06/05 04:43:34;;;;;;;;;15.33;15.33;;;;;20.49;66.15;100557.75;5093004;27;45508;-67
2022/06/05 04:45:59;;;;;;;;;11.33;10.00;;;;;20.49;65.72;100551.56;5074856;27;46315;-66
2022/06/05 04:48:24;;;;;;;;;10.00;10.00;;;;;20.54;65.33;100560.09;5075160;28;45445;-66
2022/06/05 04:50:50;;;;;;;;;12.33;10.33;;;;;20.55;65.51;100566.28;5057036;28;45404;-67
2022/06/05 04:53:15;;;;;;;;;12.33;12.33;;;;;20.51;65.66;100569.16;5075763;28;45666;-66
2022/06/05 04:55:41;;;;;;;;;9.50;9.50;;;;;20.55;65.36;100571.63;5075229;28;45545;-66
2022/06/05 04:58:06;;;;;;;;;9.75;8.75;;;;;20.56;65.08;100576.88;5075354;28;45416;-67
2022/06/05 05:00:31;;;;;;;;;10.00;10.00;;;;;20.55;65.25;100575.16;5080609;27;45459;-67
2022/06/05 05:02:57;;;;;;;;;12.33;11.00;;;;;20.60;65.41;100572.13;5075332;28;45427;-67
2022/06/05 05:05:22;;;;;;;;;10.00;9.00;;;;;20.61;65.81;100572.03;5075286;28;45950;-67
2022/06/05 05:07:48;;;;;;;;;9.00;9.00;;;;;20.69;65.29;100576.78;5075029;28;45505;-67
2022/06/05 05:10:14;;;;;;;;;8.33;7.33;;;;;20.69;66.02;100569.59;5075534;28;45422;-67
2022/06/05 05:12:40;;;;;;;;;9.33;9.33;;;;;20.69;65.53;100560.72;5075210;28;45432;-67
2022/06/05 05:15:07;;;;;;;;;9.00;9.00;;;;;20.71;65.80;100564.13;5075356;27;45524;-67
2022/06/05 05:17:32;;;;;;;;;10.67;9.00;;;;;20.68;65.63;100562.53;5087582;27;45547;-67
2022/06/05 05:19:58;;;;;;;;;10.00;9.00;;;;;20.69;65.69;100555.38;5095180;27;45471;-67
2022/06/05 05:22:24;;;;;;;;;9.75;8.75;;;;;20.76;65.41;100569.09;5095539;27;45551;-67
2022/06/05 05:24:49;;;;;;;;;8.75;8.75;;;;;20.78;65.25;100564.50;5095014;27;46347;-67
2022/06/05 05:27:14;;;;;;;;;10.50;9.75;;;;;20.80;65.47;100567.91;5089239;27;45526;-67
2022/06/05 05:29:40;;;;;;;;;14.50;11.75;;;;;20.80;65.31;100578.59;5084469;27;45481;-66
2022/06/05 05:32:08;;;;;;;;;11.67;11.33;;;;;20.82;65.16;100572.16;5095178;27;45674;-66
2022/06/05 05:34:33;;;;;;;;;14.33;12.33;;;;;20.84;65.44;100574.69;5094445;27;46163;-67
2022/06/05 05:36:59;;;;;;;;;12.33;12.33;;;;;20.87;65.11;100585.16;5094943;27;45482;-66
2022/06/05 05:42:09;;;;;;;;;12.00;11.50;;;;;20.88;65.28;100573.50;5095012;27;45494;-66
2022/06/05 05:44:35;;;;;;;;;13.50;12.00;;;;;20.91;65.17;100586.63;5094699;27;45548;-66
2022/06/05 05:47:01;;;;;;;;;11.33;11.33;;;;;20.91;64.71;100582.13;5094324;27;45552;-66
2022/06/05 05:49:26;;;;;;;;;13.33;13.33;;;;;20.93;65.21;100574.00;5093515;27;45416;-68
2022/06/05 05:51:51;;;;;;;;;14.33;12.67;;;;;20.90;65.45;100571.53;5095739;27;45610;-67
2022/06/05 05:54:17;;;;;;;;;12.50;11.75;;;;;20.94;65.33;100576.53;5094578;27;46163;-67
2022/06/05 05:56:42;;;;;;;;;13.00;12.50;;;;;20.95;65.01;100578.25;5076297;27;45409;-67
2022/06/05 05:59:07;;;;;;;;;12.67;12.33;;;;;20.94;65.32;100573.84;5094979;27;45502;-67
2022/06/05 06:01:33;;;;;;;;;10.25;10.00;;;;;20.98;65.00;100577.13;5099213;27;45434;-67
2022/06/05 06:03:59;;;;;;;;;12.25;12.25;;;;;20.96;65.24;100566.56;5094414;27;46559;-66
2022/06/05 06:06:33;;;;;;;;;14.00;12.33;;;;;20.96;65.05;100563.91;5094478;27;45427;-67
2022/06/05 06:08:59;;;;;;;;;9.75;9.75;;;;;20.96;64.72;100565.72;5094452;27;45589;-67
2022/06/05 06:11:26;;;;;;;;;10.00;10.00;;;;;20.99;65.08;100570.81;5088669;27;45559;-66
2022/06/05 06:13:51;;;;;;;;;10.00;10.00;;;;;20.92;64.82;100557.06;5085220;27;45680;-66
2022/06/05 06:16:17;;;;;;;;;10.00;10.00;;;;;20.99;64.65;100569.97;5080794;27;45550;-66
2022/06/05 06:18:42;;;;;;;;;11.33;9.33;;;;;20.99;64.78;100564.63;5083712;27;45751;-68
2022/06/05 06:21:07;;;;;;;;;10.00;9.00;;;;;21.03;65.15;100564.25;5083006;27;45514;-61
2022/06/05 06:23:33;;;;;;;;;10.00;10.00;;;;;21.01;65.60;100557.31;5094697;27;45461;-61
2022/06/05 06:25:58;;;;;;;;;9.75;9.75;;;;;21.00;65.57;100560.97;5097412;27;45508;-62
2022/06/05 06:28:24;;;;;;;;;10.75;10.75;;;;;20.99;65.17;100557.44;5097644;27;45465;-61
2022/06/05 06:30:49;;;;;;;;;10.00;8.50;;;;;21.00;65.01;100555.63;5097690;27;45643;-61
2022/06/05 06:33:14;;;;;;;;;6.50;6.50;;;;;21.03;65.22;100558.06;5097286;27;46348;-63
2022/06/05 06:35:40;;;;;;;;;8.50;6.00;;;;;21.05;64.91;100561.47;5074142;28;45455;-69
2022/06/05 06:38:06;;;;;;;;;11.75;10.00;;;;;21.09;65.66;100562.91;5089370;27;45482;-69
2022/06/05 06:40:32;;;;;;;;;9.33;9.33;;;;;21.09;65.63;100561.09;5076794;28;45538;-68
2022/06/05 06:42:58;;;;;;;;;10.25;10.25;;;;;21.12;65.59;100557.31;5086802;27;45514;-71
2022/06/05 06:45:25;;;;;;;;;10.33;10.33;;;;;21.16;65.77;100553.41;5083564;27;45490;-68
2022/06/05 06:47:50;;;;;;;;;9.25;9.25;;;;;21.15;65.38;100546.38;5097447;27;45585;-68
2022/06/05 06:50:16;;;;;;;;;12.25;10.75;;;;;21.13;65.70;100541.13;5097074;27;45509;-68
2022/06/05 06:52:42;;;;;;;;;13.33;12.67;;;;;21.14;65.90;100534.84;5093543;27;46287;-67
2022/06/05 06:55:08;;;;;;;;;9.75;9.50;;;;;21.17;65.55;100537.25;5084535;27;45452;-67
2022/06/05 06:57:34;;;;;;;;;9.75;9.75;;;;;21.16;65.68;100530.19;5097249;27;45520;-68
2022/06/05 07:00:00;;;;;;;;;10.50;10.00;;;;;21.18;65.74;100533.59;5097140;27;45422;-69
2022/06/05 07:02:25;;;;;;;;;9.00;9.00;;;;;21.14;65.98;100534.84;5088509;27;45510;-68
2022/06/05 07:04:51;;;;;;;;;9.67;9.33;;;;;21.12;66.23;100528.75;5087951;27;45493;-70
2022/06/05 07:07:16;;;;;;;;;9.75;9.75;;;;;21.11;65.88;100529.72;5096964;27;45493;-66
2022/06/05 07:09:41;;;;;;;;;7.50;7.00;;;;;21.12;66.03;100526.06;5096803;27;45446;-70
2022/06/05 07:12:07;;;;;;;;;4.50;4.50;;;;;21.14;66.18;100523.25;5087710;27;45540;-67
2022/06/05 07:14:32;;;;;;;;;7.25;6.50;;;;;21.21;66.06;100526.31;5076329;28;45522;-68
2022/06/05 07:16:58;;;;;;;;;8.25;8.25;;;;;21.22;66.13;100519.97;5076243;28;45485;-63
2022/06/05 07:19:23;;;;;;;;;8.50;8.00;;;;;21.26;66.02;100524.97;5076449;27;45658;-64
2022/06/05 07:21:49;;;;;;;;;8.75;8.75;;;;;21.31;65.63;100527.25;5088547;27;46609;-66
2022/06/05 07:24:15;;;;;;;;;7.25;7.00;;;;;21.32;65.55;100518.25;5091891;27;45501;-66
2022/06/05 07:26:40;;;;;;;;;5.50;5.50;;;;;21.33;65.40;100523.50;5093067;27;45519;-67
2022/06/05 07:29:06;;;;;;;;;7.75;6.25;;;;;21.37;65.36;100524.09;5096056;27;45476;-65
2022/06/05 07:31:31;;;;;;;;;7.00;7.00;;;;;21.35;65.32;100520.66;5094864;27;45516;-67
2022/06/05 07:33:58;;;;;;;;;4.00;4.00;;;;;21.37;64.92;100524.97;5095256;27;45590;-67
2022/06/05 07:36:26;;;;;;;;;6.75;6.75;;;;;21.37;65.29;100527.63;5086661;27;45536;-67
2022/06/05 07:38:52;;;;;;;;;5.50;5.50;;;;;21.41;65.50;100533.56;5076802;28;45519;-70
2022/06/05 07:41:19;;;;;;;;;7.50;6.50;;;;;21.39;65.34;100517.66;5077204;27;46470;-70
2022/06/05 07:43:45;;;;;;;;;7.50;6.50;;;;;21.46;64.87;100523.34;5076803;27;45517;-65
2022/06/05 07:46:11;;;;;;;;;9.75;7.75;;;;;21.48;64.86;100521.41;5092387;27;45558;-69
2022/06/05 07:48:36;;;;;;;;;6.75;6.25;;;;;21.45;65.05;100521.66;5092205;27;45590;-66
2022/06/05 07:56:36;;;;;;;;;6.50;6.50;;;;;21.58;64.58;100530.38;5091332;27;45501;-65
2022/06/05 07:59:01;;;;;;;;;7.25;7.25;;;;;21.64;64.34;100534.38;5096707;27;45347;-71
2022/06/05 08:01:26;;;;;;;;;9.50;6.75;;;;;21.66;64.28;100529.75;5095209;27;46232;-69
2022/06/05 08:03:53;;;;;;;;;7.00;7.00;;;;;21.76;64.21;100532.47;5079129;27;45562;-67
2022/06/05 08:06:18;;;;;;;;;7.00;7.00;;;;;21.81;63.82;100528.44;5095009;27;45399;-66
2022/06/05 08:08:44;;;;;;;;;8.25;8.25;;;;;21.80;63.81;100520.56;5089673;27;45544;-69
2022/06/05 08:11:09;;;;;;;;;6.00;6.00;;;;;21.91;63.43;100535.72;5080950;27;45454;-68
2022/06/05 08:13:36;;;;;;;;;7.00;6.00;;;;;21.96;63.27;100533.50;5096103;27;45477;-68
2022/06/05 08:16:02;;;;;;;;;6.00;5.75;;;;;21.92;62.81;100527.53;5082119;27;45505;-71
2022/06/05 08:18:27;;;;;;;;;7.75;6.75;;;;;22.00;62.84;100541.16;5077009;27;45606;-68
2022/06/05 08:20:53;;;;;;;;;7.00;5.75;;;;;21.99;62.82;100538.59;5090822;27;46025;-67
2022/06/05 08:23:19;;;;;;;;;4.25;4.25;;;;;22.02;62.94;100544.53;5076644;27;45380;-67
2022/06/05 08:25:45;;;;;;;;;5.75;4.75;;;;;22.02;62.00;100541.03;5092822;27;45605;-66
2022/06/05 08:28:10;;;;;;;;;5.00;5.00;;;;;21.97;62.01;100541.41;5084393;27;45546;-66
2022/06/05 08:30:38;;;;;;;;;4.75;4.75;;;;;21.95;61.87;100550.53;5095312;27;45527;-67
2022/06/05 08:33:03;;;;;;;;;5.50;5.50;;;;;21.97;62.44;100553.94;5094015;27;45533;-66
2022/06/05 08:35:29;;;;;;;;;4.00;4.00;;;;;21.94;61.79;100562.25;5094079;27;45546;-65
2022/06/05 08:43:44;;;;;;;;;4.50;4.50;;;;;21.89;61.13;100562.63;5075701;27;45501;-65
2022/06/05 08:46:15;;;;;;;;;4.00;4.00;;;;;21.88;61.19;100563.59;5078951;27;45550;-69
2022/06/05 08:49:00;;;;;;;;;3.00;3.00;;;;;21.74;61.09;100561.22;5084400;27;45428;-69
2022/06/05 08:51:58;;;;;;;;;4.75;4.75;;;;;21.67;61.30;100565.38;5095110;27;45513;-67
2022/06/05 08:54:38;;;;;;;;;3.50;3.50;;;;;21.60;62.11;100573.94;5094270;27;45589;-68
2022/06/05 08:57:17;;;;;;;;;5.50;5.00;;;;;21.60;62.27;100567.69;5096113;27;45361;-66
2022/06/05 09:00:20;;;;;;;;;7.00;6.00;;;;;21.57;62.14;100567.97;5095766;27;45633;-69
2022/06/05 09:02:58;;;;;;;;;6.75;6.75;;;;;21.56;62.33;100564.44;4992458;28;46392;-66
2022/06/05 09:05:29;;;;;;;;;7.25;7.25;;;;;21.58;62.74;100567.84;5083724;27;45440;-71
2022/06/05 09:08:00;;;;;;;;;4.25;4.25;;;;;21.55;62.78;100560.06;5095283;27;45502;-65
2022/06/05 09:10:48;;;;;;;;;6.25;6.25;;;;;21.59;62.70;100571.38;5095778;27;45625;-70
2022/06/05 09:13:24;;;;;;;;;6.75;6.75;;;;;21.59;62.58;100571.38;5095567;27;46455;-67
2022/06/05 09:15:58;;;;;;;;;8.00;7.25;;;;;21.59;62.88;100577.56;5095380;27;45402;-67
2022/06/05 09:18:25;;;;;;;;;6.50;6.50;;;;;21.60;62.57;100583.75;5095151;27;45498;-71
2022/06/05 09:20:51;;;;;;;;;8.50;8.50;;;;;21.52;63.26;100603.16;5094994;27;45613;-69
2022/06/05 09:23:40;;;;;;;;;11.50;10.00;;;;;21.47;63.34;100601.81;5094139;27;46427;-67
2022/06/05 09:26:19;;;;;;;;;12.50;8.00;;;;;21.43;63.29;100598.53;5096636;27;45512;-67
2022/06/05 09:28:57;;;;;;;;;6.75;6.75;;;;;21.49;63.52;100608.72;5095905;27;45433;-68
2022/06/05 09:31:32;;;;;;;;;8.50;8.50;;;;;21.45;63.58;100618.00;5095067;27;45432;-67
2022/06/05 09:34:04;;;;;;;;;8.00;8.00;;;;;21.46;63.87;100632.22;5095056;27;46413;-66
2022/06/05 09:36:32;;;;;;;;;7.00;7.00;;;;;21.42;63.59;100636.13;5094865;27;45426;-67
2022/06/05 09:39:16;;;;;;;;;7.25;7.25;;;;;21.43;63.92;100633.31;5095095;27;45705;-68
2022/06/05 09:42:05;;;;;;;;;8.50;8.25;;;;;21.40;64.40;100626.38;5094449;27;45518;-68
2022/06/05 09:44:52;;;;;;;;;8.25;8.25;;;;;21.45;64.48;100630.53;5055226;27;47712;-68
2022/06/05 09:47:44;;;;;;;;;8.00;8.00;;;;;21.45;64.14;100623.34;5094673;27;45495;-65
2022/06/05 09:50:30;;;;;;;;;11.00;10.50;;;;;21.45;64.68;100642.06;5094847;27;45478;-66
2022/06/05 09:52:56;;;;;;;;;8.50;8.50;;;;;21.40;64.91;100637.06;5092404;27;45683;-65
2022/06/05 09:55:39;;;;;;;;;11.25;10.25;;;;;21.32;64.90;100634.13;5088852;27;46160;-70
2022/06/05 09:58:31;;;;;;;;;10.25;9.50;;;;;21.30;65.18;100646.78;5074736;27;45517;-66
2022/06/05 10:01:19;;;;;;;;;9.50;9.50;;;;;21.28;64.99;100646.06;5046293;27;45673;-65
2022/06/05 10:03:44;;;;;;;;;10.00;10.00;;;;;21.28;64.83;100646.06;5082913;27;45558;-65
2022/06/05 10:06:22;;;;;;;;;9.25;9.25;;;;;21.32;64.54;100647.50;5093889;27;46043;-69
2022/06/05 10:08:53;;;;;;;;;13.25;12.75;;;;;21.30;64.34;100645.94;5093047;27;45489;-69
2022/06/05 10:11:37;;;;;;;;;11.67;11.67;;;;;21.28;64.13;100653.22;5093631;27;45505;-64
2022/06/05 10:14:15;;;;;;;;;10.00;10.00;;;;;21.32;64.10;100660.88;5083846;27;45580;-67
2022/06/05 10:17:09;;;;;;;;;13.25;11.00;;;;;21.34;63.35;100664.31;5093272;27;46937;-64
2022/06/05 10:19:55;;;;;;;;;13.00;11.00;;;;;21.35;63.41;100657.13;5092119;27;45527;-65
2022/06/05 10:22:26;;;;;;;;;8.75;8.75;;;;;21.39;63.57;100669.31;5094090;27;45444;-65
2022/06/05 10:24:55;;;;;;;;;9.00;9.00;;;;;21.39;63.68;100662.16;5094441;27;45576;-65
2022/06/05 10:27:22;;;;;;;;;12.00;12.00;;;;;21.34;63.57;100647.41;5094474;27;46509;-68
2022/06/05 10:29:53;;;;;;;;;9.00;9.00;;;;;21.44;63.52;100663.59;5094205;27;45450;-68
2022/06/05 10:32:24;;;;;;;;;14.00;13.00;;;;;21.39;63.37;100656.78;5094294;27;45461;-67
2022/06/05 10:34:49;;;;;;;;;14.33;14.33;;;;;21.36;63.78;100662.38;5094094;27;45409;-65
2022/06/05 10:37:32;;;;;;;;;11.67;11.67;;;;;21.32;63.85;100662.72;5093971;27;46079;-65
2022/06/05 10:40:13;;;;;;;;;12.00;12.00;;;;;21.35;63.41;100670.50;5094350;27;45479;-63
2022/06/05 10:43:01;;;;;;;;;15.33;14.67;;;;;21.30;63.44;100668.19;5094308;27;45444;-64
2022/06/05 10:45:57;;;;;;;;;14.33;14.33;;;;;21.31;63.21;100667.22;5094085;27;45511;-67
2022/06/05 10:48:22;;;;;;;;;13.00;13.00;;;;;21.31;63.44;100674.41;5093855;27;46489;-66
2022/06/05 10:50:55;;;;;;;;;14.67;14.67;;;;;21.16;63.28;100652.38;5093925;27;46043;-67
2022/06/05 10:53:43;;;;;;;;;15.67;15.67;;;;;21.25;63.48;100666.84;5094157;27;45516;-66
2022/06/05 10:56:31;;;;;;;;;13.67;13.67;;;;;21.23;63.24;100675.00;5094560;27;45567;-64
2022/06/05 10:59:30;;;;;;;;;15.00;13.33;;;;;21.18;63.50;100685.22;5090846;27;45577;-67
2022/06/05 11:02:33;;;;;;;;;20.00;18.00;;;;;21.11;63.63;100682.16;5087536;27;45558;-68
2022/06/05 11:05:17;;;;;;;;;16.33;16.33;;;;;21.08;63.91;100678.88;5093308;27;45492;-67
2022/06/05 11:08:30;;;;;;;;;17.67;16.00;;;;;21.13;63.97;100680.22;5088706;27;45432;-66
2022/06/05 11:14:09;;;;;;;;;16.00;15.33;;;;;21.14;64.02;100687.28;5081889;27;45810;-68
2022/06/05 11:16:54;;;;;;;;;20.00;19.00;;;;;21.14;63.61;100681.06;5061389;27;45553;-66
2022/06/05 11:19:30;;;;;;;;;13.67;13.67;;;;;21.15;63.54;100688.13;5083008;27;45561;-67
2022/06/05 11:22:00;;;;;;;;;16.33;15.67;;;;;21.12;63.25;100675.84;5088082;27;46002;-66
2022/06/05 11:24:47;;;;;;;;;14.00;14.00;;;;;21.25;63.19;100678.41;5095383;27;45627;-66
2022/06/05 11:27:24;;;;;;;;;15.00;15.00;;;;;21.25;63.07;100677.53;5075907;27;45433;-62
2022/06/05 11:30:01;;;;;;;;;15.00;15.00;;;;;21.30;63.23;100675.34;5071238;27;45540;-67
2022/06/05 11:32:48;;;;;;;;;14.67;14.67;;;;;21.36;63.13;100667.72;5097047;27;45455;-66
2022/06/05 11:35:33;;;;;;;;;15.33;14.33;;;;;21.33;62.70;100676.00;5092438;27;45591;-66
2022/06/05 11:38:16;;;;;;;;;16.67;15.67;;;;;21.30;62.84;100694.09;5075333;27;45402;-67
2022/06/05 11:41:06;;;;;;;;;14.67;14.67;;;;;21.28;62.75;100696.91;5077160;28;45393;-68
2022/06/05 11:43:40;;;;;;;;;16.67;16.67;;;;;21.20;62.54;100704.69;5075655;27;46549;-66
2022/06/05 11:46:11;;;;;;;;;14.33;14.33;;;;;21.12;63.04;100699.06;5076492;27;45708;-69
2022/06/05 11:48:50;;;;;;;;;16.33;16.33;;;;;21.15;63.25;100701.50;5075982;28;45491;-67
2022/06/05 11:51:24;;;;;;;;;17.00;16.33;;;;;21.16;63.03;100703.19;5076292;28;45513;-67
2022/06/05 11:53:56;;;;;;;;;16.00;16.00;;;;;21.12;63.18;100715.13;5077933;27;45538;-67
2022/06/05 11:56:30;;;;;;;;;15.67;15.33;;;;;21.09;63.34;100709.97;5085104;27;45562;-67